sensor_id;sensor_type;location;lat;lon;timestamp;P1;durP1;ratioP1;P2;durP2;ratioP2
17310;SDS011;8773;43.300;0.394;2023-12-07T00:01:42;17.60;;;14.53;;
17310;SDS011;8773;43.300;0.394;2023-12-07T00:04:09;19.10;;;14.87;;
17310;SDS011;8773;43.300;0.394;2023-12-07T00:06:36;15.97;;;14.33;;
17310;SDS011;8773;43.300;0.394;2023-12-07T00:09:04;16.77;;;13.50;;
17310;SDS011;8773;43.300;0.394;2023-12-07T00:11:33;17.47;;;14.97;;
17310;SDS011;8773;43.300;0.394;2023-12-07T00:14:00;15.90;;;12.83;;
17310;SDS011;8773;43.300;0.394;2023-12-07T00:16:27;16.27;;;12.97;;
17310;SDS011;8773;43.300;0.394;2023-12-07T00:18:55;15.30;;;13.67;;
17310;SDS011;8773;43.300;0.394;2023-12-07T00:21:22;16.03;;;13.13;;
17310;SDS011;8773;43.300;0.394;2023-12-07T00:23:50;13.20;;;11.80;;
17310;SDS011;8773;43.300;0.394;2023-12-07T00:26:17;13.70;;;12.20;;
17310;SDS011;8773;43.300;0.394;2023-12-07T00:28:46;16.13;;;13.53;;
17310;SDS011;8773;43.300;0.394;2023-12-07T00:31:30;14.63;;;13.13;;
17310;SDS011;8773;43.300;0.394;2023-12-07T00:33:58;14.53;;;12.87;;
17310;SDS011;8773;43.300;0.394;2023-12-07T00:36:25;12.90;;;11.70;;
17310;SDS011;8773;43.300;0.394;2023-12-07T00:38:52;14.73;;;12.20;;
17310;SDS011;8773;43.300;0.394;2023-12-07T00:41:20;14.57;;;12.97;;
17310;SDS011;8773;43.300;0.394;2023-12-07T00:43:49;12.63;;;11.37;;
17310;SDS011;8773;43.300;0.394;2023-12-07T00:46:16;13.53;;;12.17;;
17310;SDS011;8773;43.300;0.394;2023-12-07T00:48:43;12.67;;;11.37;;
17310;SDS011;8773;43.300;0.394;2023-12-07T00:51:11;13.03;;;11.67;;
17310;SDS011;8773;43.300;0.394;2023-12-07T00:53:38;12.83;;;10.73;;
17310;SDS011;8773;43.300;0.394;2023-12-07T00:56:06;12.03;;;10.83;;
17310;SDS011;8773;43.300;0.394;2023-12-07T00:58:34;11.83;;;10.63;;
17310;SDS011;8773;43.300;0.394;2023-12-07T01:01:03;12.10;;;11.00;;
17310;SDS011;8773;43.300;0.394;2023-12-07T01:03:30;11.90;;;10.77;;
17310;SDS011;8773;43.300;0.394;2023-12-07T01:05:58;10.03;;;9.20;;
17310;SDS011;8773;43.300;0.394;2023-12-07T01:08:25;14.30;;;10.87;;
17310;SDS011;8773;43.300;0.394;2023-12-07T01:10:52;11.10;;;10.00;;
17310;SDS011;8773;43.300;0.394;2023-12-07T01:13:20;11.93;;;10.50;;
17310;SDS011;8773;43.300;0.394;2023-12-07T01:15:47;11.57;;;10.37;;
17310;SDS011;8773;43.300;0.394;2023-12-07T01:18:16;11.57;;;10.37;;
17310;SDS011;8773;43.300;0.394;2023-12-07T01:20:43;11.30;;;10.20;;
17310;SDS011;8773;43.300;0.394;2023-12-07T01:23:11;10.93;;;9.70;;
17310;SDS011;8773;43.300;0.394;2023-12-07T01:25:42;11.30;;;10.20;;
17310;SDS011;8773;43.300;0.394;2023-12-07T01:28:09;12.27;;;10.03;;
17310;SDS011;8773;43.300;0.394;2023-12-07T01:30:37;11.20;;;10.10;;
17310;SDS011;8773;43.300;0.394;2023-12-07T01:33:04;10.47;;;9.47;;
17310;SDS011;8773;43.300;0.394;2023-12-07T01:35:33;11.40;;;10.00;;
17310;SDS011;8773;43.300;0.394;2023-12-07T01:38:00;9.47;;;8.47;;
17310;SDS011;8773;43.300;0.394;2023-12-07T01:40:27;9.37;;;8.50;;
17310;SDS011;8773;43.300;0.394;2023-12-07T01:42:55;8.93;;;8.07;;
17310;SDS011;8773;43.300;0.394;2023-12-07T01:45:22;9.53;;;8.73;;
17310;SDS011;8773;43.300;0.394;2023-12-07T01:47:50;9.73;;;8.73;;
17310;SDS011;8773;43.300;0.394;2023-12-07T01:50:19;9.50;;;8.67;;
17310;SDS011;8773;43.300;0.394;2023-12-07T01:52:49;10.00;;;9.00;;
17310;SDS011;8773;43.300;0.394;2023-12-07T01:55:20;8.90;;;8.10;;
17310;SDS011;8773;43.300;0.394;2023-12-07T01:57:49;9.00;;;8.10;;
17310;SDS011;8773;43.300;0.394;2023-12-07T02:00:17;9.27;;;8.23;;
17310;SDS011;8773;43.300;0.394;2023-12-07T02:02:44;8.57;;;7.77;;
17310;SDS011;8773;43.300;0.394;2023-12-07T02:05:13;9.30;;;8.40;;
17310;SDS011;8773;43.300;0.394;2023-12-07T02:07:41;9.47;;;8.33;;
17310;SDS011;8773;43.300;0.394;2023-12-07T02:10:10;8.60;;;7.80;;
17310;SDS011;8773;43.300;0.394;2023-12-07T02:12:38;8.73;;;7.83;;
17310;SDS011;8773;43.300;0.394;2023-12-07T02:15:06;7.90;;;7.30;;
17310;SDS011;8773;43.300;0.394;2023-12-07T02:17:34;8.50;;;7.70;;
17310;SDS011;8773;43.300;0.394;2023-12-07T02:20:06;8.70;;;7.87;;
17310;SDS011;8773;43.300;0.394;2023-12-07T02:22:39;7.70;;;7.00;;
17310;SDS011;8773;43.300;0.394;2023-12-07T02:25:10;8.43;;;7.67;;
17310;SDS011;8773;43.300;0.394;2023-12-07T02:27:43;9.93;;;7.63;;
17310;SDS011;8773;43.300;0.394;2023-12-07T02:30:11;8.13;;;7.43;;
17310;SDS011;8773;43.300;0.394;2023-12-07T02:32:39;8.00;;;6.97;;
17310;SDS011;8773;43.300;0.394;2023-12-07T02:35:09;7.03;;;6.53;;
17310;SDS011;8773;43.300;0.394;2023-12-07T02:37:44;7.20;;;5.77;;
17310;SDS011;8773;43.300;0.394;2023-12-07T02:40:13;6.97;;;6.37;;
17310;SDS011;8773;43.300;0.394;2023-12-07T02:42:45;6.87;;;6.13;;
17310;SDS011;8773;43.300;0.394;2023-12-07T02:45:14;6.53;;;6.03;;
17310;SDS011;8773;43.300;0.394;2023-12-07T02:47:42;6.37;;;5.87;;
17310;SDS011;8773;43.300;0.394;2023-12-07T02:50:09;6.43;;;5.93;;
17310;SDS011;8773;43.300;0.394;2023-12-07T02:52:37;6.17;;;5.67;;
17310;SDS011;8773;43.300;0.394;2023-12-07T02:55:05;6.23;;;5.73;;
17310;SDS011;8773;43.300;0.394;2023-12-07T02:57:33;5.33;;;5.00;;
17310;SDS011;8773;43.300;0.394;2023-12-07T03:00:01;5.50;;;5.07;;
17310;SDS011;8773;43.300;0.394;2023-12-07T03:02:29;6.23;;;5.70;;
17310;SDS011;8773;43.300;0.394;2023-12-07T03:04:57;6.00;;;5.50;;
17310;SDS011;8773;43.300;0.394;2023-12-07T03:07:24;5.10;;;4.80;;
17310;SDS011;8773;43.300;0.394;2023-12-07T03:09:51;5.40;;;4.90;;
17310;SDS011;8773;43.300;0.394;2023-12-07T03:12:19;5.97;;;5.47;;
17310;SDS011;8773;43.300;0.394;2023-12-07T03:14:46;6.43;;;5.83;;
17310;SDS011;8773;43.300;0.394;2023-12-07T03:17:15;5.27;;;4.97;;
17310;SDS011;8773;43.300;0.394;2023-12-07T03:19:42;5.40;;;5.00;;
17310;SDS011;8773;43.300;0.394;2023-12-07T03:22:10;5.30;;;4.97;;
17310;SDS011;8773;43.300;0.394;2023-12-07T03:24:37;7.63;;;4.70;;
17310;SDS011;8773;43.300;0.394;2023-12-07T03:27:05;4.90;;;4.50;;
17310;SDS011;8773;43.300;0.394;2023-12-07T03:29:32;4.50;;;4.03;;
17310;SDS011;8773;43.300;0.394;2023-12-07T03:31:59;4.90;;;4.50;;
17310;SDS011;8773;43.300;0.394;2023-12-07T03:34:28;5.37;;;4.90;;
17310;SDS011;8773;43.300;0.394;2023-12-07T03:36:55;4.57;;;4.17;;
17310;SDS011;8773;43.300;0.394;2023-12-07T03:39:22;4.80;;;4.30;;
17310;SDS011;8773;43.300;0.394;2023-12-07T03:41:50;5.00;;;4.60;;
17310;SDS011;8773;43.300;0.394;2023-12-07T03:44:17;4.87;;;4.57;;
17310;SDS011;8773;43.300;0.394;2023-12-07T03:46:45;5.17;;;4.77;;
17310;SDS011;8773;43.300;0.394;2023-12-07T03:49:12;4.80;;;4.40;;
17310;SDS011;8773;43.300;0.394;2023-12-07T03:51:41;4.50;;;4.20;;
17310;SDS011;8773;43.300;0.394;2023-12-07T03:54:08;4.80;;;4.30;;
17310;SDS011;8773;43.300;0.394;2023-12-07T03:56:35;4.20;;;3.87;;
17310;SDS011;8773;43.300;0.394;2023-12-07T03:59:03;3.70;;;3.50;;
17310;SDS011;8773;43.300;0.394;2023-12-07T04:01:30;4.70;;;4.40;;
17310;SDS011;8773;43.300;0.394;2023-12-07T04:03:57;4.53;;;4.20;;
17310;SDS011;8773;43.300;0.394;2023-12-07T04:06:25;4.40;;;4.10;;
17310;SDS011;8773;43.300;0.394;2023-12-07T04:08:54;4.40;;;4.10;;
17310;SDS011;8773;43.300;0.394;2023-12-07T04:11:21;3.90;;;3.70;;
17310;SDS011;8773;43.300;0.394;2023-12-07T04:13:48;4.43;;;4.13;;
17310;SDS011;8773;43.300;0.394;2023-12-07T04:16:16;4.07;;;3.87;;
17310;SDS011;8773;43.300;0.394;2023-12-07T04:18:43;3.90;;;3.70;;
17310;SDS011;8773;43.300;0.394;2023-12-07T04:21:11;3.43;;;3.23;;
17310;SDS011;8773;43.300;0.394;2023-12-07T04:23:38;3.53;;;3.33;;
17310;SDS011;8773;43.300;0.394;2023-12-07T04:26:07;3.60;;;3.30;;
17310;SDS011;8773;43.300;0.394;2023-12-07T04:28:34;3.77;;;3.50;;
17310;SDS011;8773;43.300;0.394;2023-12-07T04:31:02;3.37;;;3.17;;
17310;SDS011;8773;43.300;0.394;2023-12-07T04:33:29;3.80;;;3.50;;
17310;SDS011;8773;43.300;0.394;2023-12-07T04:35:57;3.70;;;3.40;;
17310;SDS011;8773;43.300;0.394;2023-12-07T04:38:24;3.43;;;3.20;;
17310;SDS011;8773;43.300;0.394;2023-12-07T04:40:52;3.70;;;3.50;;
17310;SDS011;8773;43.300;0.394;2023-12-07T04:43:20;3.30;;;3.10;;
17310;SDS011;8773;43.300;0.394;2023-12-07T04:45:48;3.10;;;2.90;;
17310;SDS011;8773;43.300;0.394;2023-12-07T04:48:15;3.23;;;3.03;;
17310;SDS011;8773;43.300;0.394;2023-12-07T04:50:43;3.37;;;3.13;;
17310;SDS011;8773;43.300;0.394;2023-12-07T04:53:10;3.27;;;2.97;;
17310;SDS011;8773;43.300;0.394;2023-12-07T04:55:37;4.33;;;3.23;;
17310;SDS011;8773;43.300;0.394;2023-12-07T04:58:05;3.40;;;3.20;;
17310;SDS011;8773;43.300;0.394;2023-12-07T05:00:33;3.20;;;3.10;;
17310;SDS011;8773;43.300;0.394;2023-12-07T05:03:01;3.37;;;3.17;;
17310;SDS011;8773;43.300;0.394;2023-12-07T05:05:28;3.40;;;3.20;;
17310;SDS011;8773;43.300;0.394;2023-12-07T05:07:56;3.47;;;3.10;;
17310;SDS011;8773;43.300;0.394;2023-12-07T05:10:23;3.23;;;3.03;;
17310;SDS011;8773;43.300;0.394;2023-12-07T05:12:50;3.23;;;2.97;;
17310;SDS011;8773;43.300;0.394;2023-12-07T05:15:18;2.80;;;2.60;;
17310;SDS011;8773;43.300;0.394;2023-12-07T05:17:46;3.00;;;2.80;;
17310;SDS011;8773;43.300;0.394;2023-12-07T05:20:14;2.77;;;2.57;;
17310;SDS011;8773;43.300;0.394;2023-12-07T05:22:41;3.40;;;3.10;;
17310;SDS011;8773;43.300;0.394;2023-12-07T05:25:09;2.67;;;2.50;;
17310;SDS011;8773;43.300;0.394;2023-12-07T05:27:36;3.27;;;3.00;;
17310;SDS011;8773;43.300;0.394;2023-12-07T05:30:04;2.60;;;2.50;;
17310;SDS011;8773;43.300;0.394;2023-12-07T05:32:34;3.30;;;3.10;;
17310;SDS011;8773;43.300;0.394;2023-12-07T05:35:03;3.10;;;2.90;;
17310;SDS011;8773;43.300;0.394;2023-12-07T05:37:30;3.07;;;2.93;;
17310;SDS011;8773;43.300;0.394;2023-12-07T05:39:58;2.97;;;2.87;;
17310;SDS011;8773;43.300;0.394;2023-12-07T05:42:25;2.80;;;2.60;;
17310;SDS011;8773;43.300;0.394;2023-12-07T05:44:53;4.07;;;3.10;;
17310;SDS011;8773;43.300;0.394;2023-12-07T05:47:20;3.30;;;3.10;;
17310;SDS011;8773;43.300;0.394;2023-12-07T05:49:47;3.40;;;3.30;;
17310;SDS011;8773;43.300;0.394;2023-12-07T05:52:16;3.40;;;3.20;;
17310;SDS011;8773;43.300;0.394;2023-12-07T05:54:43;2.80;;;2.60;;
17310;SDS011;8773;43.300;0.394;2023-12-07T05:57:11;2.93;;;2.73;;
17310;SDS011;8773;43.300;0.394;2023-12-07T05:59:38;2.53;;;2.43;;
17310;SDS011;8773;43.300;0.394;2023-12-07T06:02:06;2.70;;;2.60;;
17310;SDS011;8773;43.300;0.394;2023-12-07T06:04:34;2.70;;;2.60;;
17310;SDS011;8773;43.300;0.394;2023-12-07T06:07:01;2.70;;;2.50;;
17310;SDS011;8773;43.300;0.394;2023-12-07T06:09:30;2.73;;;2.63;;
17310;SDS011;8773;43.300;0.394;2023-12-07T06:11:57;2.70;;;2.60;;
17310;SDS011;8773;43.300;0.394;2023-12-07T06:14:24;2.87;;;2.70;;
17310;SDS011;8773;43.300;0.394;2023-12-07T06:16:52;3.00;;;2.80;;
17310;SDS011;8773;43.300;0.394;2023-12-07T06:19:19;3.23;;;3.00;;
17310;SDS011;8773;43.300;0.394;2023-12-07T06:21:47;3.70;;;3.40;;
17310;SDS011;8773;43.300;0.394;2023-12-07T06:24:14;3.37;;;2.70;;
17310;SDS011;8773;43.300;0.394;2023-12-07T06:26:42;3.30;;;3.10;;
17310;SDS011;8773;43.300;0.394;2023-12-07T06:29:10;3.23;;;3.00;;
17310;SDS011;8773;43.300;0.394;2023-12-07T06:31:42;3.17;;;2.97;;
17310;SDS011;8773;43.300;0.394;2023-12-07T06:34:10;3.50;;;3.20;;
17310;SDS011;8773;43.300;0.394;2023-12-07T06:36:37;3.43;;;3.23;;
17310;SDS011;8773;43.300;0.394;2023-12-07T06:39:06;3.80;;;3.50;;
17310;SDS011;8773;43.300;0.394;2023-12-07T06:41:33;3.07;;;2.87;;
17310;SDS011;8773;43.300;0.394;2023-12-07T06:44:02;3.00;;;2.80;;
17310;SDS011;8773;43.300;0.394;2023-12-07T06:46:29;3.23;;;3.03;;
17310;SDS011;8773;43.300;0.394;2023-12-07T06:48:57;3.80;;;3.40;;
17310;SDS011;8773;43.300;0.394;2023-12-07T06:51:24;3.37;;;3.10;;
17310;SDS011;8773;43.300;0.394;2023-12-07T06:53:51;3.20;;;3.00;;
17310;SDS011;8773;43.300;0.394;2023-12-07T06:56:19;3.37;;;3.17;;
17310;SDS011;8773;43.300;0.394;2023-12-07T06:58:46;3.07;;;2.87;;
17310;SDS011;8773;43.300;0.394;2023-12-07T07:01:15;3.00;;;2.80;;
17310;SDS011;8773;43.300;0.394;2023-12-07T07:03:42;3.73;;;3.20;;
17310;SDS011;8773;43.300;0.394;2023-12-07T07:06:09;2.90;;;2.70;;
17310;SDS011;8773;43.300;0.394;2023-12-07T07:08:37;3.53;;;3.17;;
17310;SDS011;8773;43.300;0.394;2023-12-07T07:11:09;3.87;;;2.83;;
17310;SDS011;8773;43.300;0.394;2023-12-07T07:13:38;3.17;;;2.97;;
17310;SDS011;8773;43.300;0.394;2023-12-07T07:16:07;3.27;;;2.97;;
17310;SDS011;8773;43.300;0.394;2023-12-07T07:18:38;3.57;;;3.17;;
17310;SDS011;8773;43.300;0.394;2023-12-07T07:21:06;3.63;;;3.33;;
17310;SDS011;8773;43.300;0.394;2023-12-07T07:23:34;3.80;;;3.43;;
17310;SDS011;8773;43.300;0.394;2023-12-07T07:26:02;3.40;;;3.20;;
17310;SDS011;8773;43.300;0.394;2023-12-07T07:28:29;3.40;;;3.10;;
17310;SDS011;8773;43.300;0.394;2023-12-07T07:30:57;3.70;;;3.40;;
17310;SDS011;8773;43.300;0.394;2023-12-07T07:33:24;3.40;;;3.20;;
17310;SDS011;8773;43.300;0.394;2023-12-07T07:35:53;3.30;;;3.00;;
17310;SDS011;8773;43.300;0.394;2023-12-07T07:38:22;3.60;;;3.40;;
17310;SDS011;8773;43.300;0.394;2023-12-07T07:40:50;3.63;;;3.33;;
17310;SDS011;8773;43.300;0.394;2023-12-07T07:43:17;3.57;;;3.37;;
17310;SDS011;8773;43.300;0.394;2023-12-07T07:45:45;3.67;;;3.40;;
17310;SDS011;8773;43.300;0.394;2023-12-07T07:48:12;3.63;;;3.43;;
17310;SDS011;8773;43.300;0.394;2023-12-07T07:50:40;3.97;;;3.60;;
17310;SDS011;8773;43.300;0.394;2023-12-07T07:53:08;3.90;;;3.70;;
17310;SDS011;8773;43.300;0.394;2023-12-07T07:55:36;4.70;;;3.60;;
17310;SDS011;8773;43.300;0.394;2023-12-07T07:58:03;5.60;;;4.33;;
17310;SDS011;8773;43.300;0.394;2023-12-07T08:00:31;4.53;;;4.23;;
17310;SDS011;8773;43.300;0.394;2023-12-07T08:02:58;3.60;;;3.40;;
17310;SDS011;8773;43.300;0.394;2023-12-07T08:05:25;4.03;;;3.70;;
17310;SDS011;8773;43.300;0.394;2023-12-07T08:07:53;6.00;;;3.37;;
17310;SDS011;8773;43.300;0.394;2023-12-07T08:10:21;3.73;;;3.37;;
17310;SDS011;8773;43.300;0.394;2023-12-07T08:12:49;4.87;;;4.47;;
17310;SDS011;8773;43.300;0.394;2023-12-07T08:15:16;5.53;;;5.07;;
17310;SDS011;8773;43.300;0.394;2023-12-07T08:17:44;4.93;;;4.50;;
17310;SDS011;8773;43.300;0.394;2023-12-07T08:20:11;5.03;;;4.43;;
17310;SDS011;8773;43.300;0.394;2023-12-07T08:22:39;4.97;;;3.67;;
17310;SDS011;8773;43.300;0.394;2023-12-07T08:25:07;4.13;;;3.83;;
17310;SDS011;8773;43.300;0.394;2023-12-07T08:27:39;4.07;;;3.87;;
17310;SDS011;8773;43.300;0.394;2023-12-07T08:30:07;3.93;;;3.73;;
17310;SDS011;8773;43.300;0.394;2023-12-07T08:32:35;4.50;;;4.10;;
17310;SDS011;8773;43.300;0.394;2023-12-07T08:35:02;4.67;;;4.17;;
17310;SDS011;8773;43.300;0.394;2023-12-07T08:37:30;4.73;;;4.33;;
17310;SDS011;8773;43.300;0.394;2023-12-07T08:39:57;4.20;;;3.90;;
17310;SDS011;8773;43.300;0.394;2023-12-07T08:42:25;4.40;;;4.00;;
17310;SDS011;8773;43.300;0.394;2023-12-07T08:44:53;4.57;;;3.90;;
17310;SDS011;8773;43.300;0.394;2023-12-07T08:47:21;4.63;;;4.23;;
17310;SDS011;8773;43.300;0.394;2023-12-07T08:49:48;4.93;;;4.57;;
17310;SDS011;8773;43.300;0.394;2023-12-07T08:52:16;4.60;;;4.27;;
17310;SDS011;8773;43.300;0.394;2023-12-07T08:55:01;4.50;;;4.10;;
17310;SDS011;8773;43.300;0.394;2023-12-07T08:57:29;5.57;;;5.00;;
17310;SDS011;8773;43.300;0.394;2023-12-07T08:59:57;5.23;;;4.50;;
17310;SDS011;8773;43.300;0.394;2023-12-07T09:02:25;5.47;;;4.97;;
17310;SDS011;8773;43.300;0.394;2023-12-07T09:05:08;7.63;;;6.83;;
17310;SDS011;8773;43.300;0.394;2023-12-07T09:07:35;5.50;;;5.00;;
17310;SDS011;8773;43.300;0.394;2023-12-07T09:10:03;4.47;;;4.03;;
17310;SDS011;8773;43.300;0.394;2023-12-07T09:12:31;4.87;;;4.47;;
17310;SDS011;8773;43.300;0.394;2023-12-07T09:15:07;4.20;;;3.90;;
17310;SDS011;8773;43.300;0.394;2023-12-07T09:17:35;5.27;;;4.90;;
17310;SDS011;8773;43.300;0.394;2023-12-07T09:20:03;4.63;;;4.33;;
17310;SDS011;8773;43.300;0.394;2023-12-07T09:22:31;4.17;;;3.70;;
17310;SDS011;8773;43.300;0.394;2023-12-07T09:25:04;4.97;;;3.97;;
17310;SDS011;8773;43.300;0.394;2023-12-07T09:27:32;4.50;;;4.10;;
17310;SDS011;8773;43.300;0.394;2023-12-07T09:30:00;5.57;;;5.00;;
17310;SDS011;8773;43.300;0.394;2023-12-07T09:32:29;4.33;;;4.03;;
17310;SDS011;8773;43.300;0.394;2023-12-07T09:35:03;22.37;;;15.23;;
17310;SDS011;8773;43.300;0.394;2023-12-07T09:37:31;5.63;;;4.37;;
17310;SDS011;8773;43.300;0.394;2023-12-07T09:39:58;5.40;;;4.90;;
17310;SDS011;8773;43.300;0.394;2023-12-07T09:42:26;4.13;;;3.80;;
17310;SDS011;8773;43.300;0.394;2023-12-07T09:45:02;4.27;;;3.97;;
17310;SDS011;8773;43.300;0.394;2023-12-07T09:47:31;3.83;;;3.53;;
17310;SDS011;8773;43.300;0.394;2023-12-07T09:50:04;6.37;;;5.97;;
17310;SDS011;8773;43.300;0.394;2023-12-07T09:52:33;4.63;;;4.20;;
17310;SDS011;8773;43.300;0.394;2023-12-07T09:55:00;3.57;;;3.27;;
17310;SDS011;8773;43.300;0.394;2023-12-07T09:57:29;4.23;;;3.97;;
17310;SDS011;8773;43.300;0.394;2023-12-07T09:59:57;4.20;;;3.90;;
17310;SDS011;8773;43.300;0.394;2023-12-07T10:02:25;4.80;;;4.30;;
17310;SDS011;8773;43.300;0.394;2023-12-07T10:05:04;4.73;;;4.43;;
17310;SDS011;8773;43.300;0.394;2023-12-07T10:07:32;5.00;;;4.60;;
17310;SDS011;8773;43.300;0.394;2023-12-07T10:10:01;4.70;;;4.40;;
17310;SDS011;8773;43.300;0.394;2023-12-07T10:12:29;4.70;;;4.33;;
17310;SDS011;8773;43.300;0.394;2023-12-07T10:14:56;4.63;;;4.30;;
17310;SDS011;8773;43.300;0.394;2023-12-07T10:17:24;4.73;;;4.43;;
17310;SDS011;8773;43.300;0.394;2023-12-07T10:22:45;4.50;;;4.20;;
17310;SDS011;8773;43.300;0.394;2023-12-07T10:25:13;4.43;;;4.13;;
17310;SDS011;8773;43.300;0.394;2023-12-07T10:27:41;4.63;;;4.23;;
17310;SDS011;8773;43.300;0.394;2023-12-07T10:30:09;4.87;;;4.37;;
17310;SDS011;8773;43.300;0.394;2023-12-07T10:32:37;4.87;;;4.47;;
17310;SDS011;8773;43.300;0.394;2023-12-07T10:35:06;4.27;;;3.90;;
17310;SDS011;8773;43.300;0.394;2023-12-07T10:37:34;4.57;;;4.27;;
17310;SDS011;8773;43.300;0.394;2023-12-07T10:40:04;4.60;;;4.20;;
17310;SDS011;8773;43.300;0.394;2023-12-07T10:42:33;4.37;;;4.07;;
17310;SDS011;8773;43.300;0.394;2023-12-07T10:45:03;5.93;;;4.70;;
17310;SDS011;8773;43.300;0.394;2023-12-07T10:47:32;5.23;;;4.80;;
17310;SDS011;8773;43.300;0.394;2023-12-07T10:50:04;4.93;;;4.50;;
17310;SDS011;8773;43.300;0.394;2023-12-07T10:52:33;4.70;;;4.30;;
17310;SDS011;8773;43.300;0.394;2023-12-07T10:55:03;4.47;;;4.07;;
17310;SDS011;8773;43.300;0.394;2023-12-07T10:57:34;6.30;;;5.80;;
17310;SDS011;8773;43.300;0.394;2023-12-07T11:00:03;6.00;;;5.40;;
17310;SDS011;8773;43.300;0.394;2023-12-07T11:02:32;4.33;;;4.03;;
17310;SDS011;8773;43.300;0.394;2023-12-07T11:05:01;4.70;;;4.33;;
17310;SDS011;8773;43.300;0.394;2023-12-07T11:07:32;4.23;;;3.87;;
17310;SDS011;8773;43.300;0.394;2023-12-07T11:10:10;4.13;;;3.73;;
17310;SDS011;8773;43.300;0.394;2023-12-07T11:12:43;3.80;;;3.53;;
17310;SDS011;8773;43.300;0.394;2023-12-07T11:15:16;4.30;;;4.00;;
17310;SDS011;8773;43.300;0.394;2023-12-07T11:17:48;4.20;;;3.70;;
17310;SDS011;8773;43.300;0.394;2023-12-07T11:20:20;4.50;;;4.23;;
17310;SDS011;8773;43.300;0.394;2023-12-07T11:22:48;5.10;;;4.57;;
17310;SDS011;8773;43.300;0.394;2023-12-07T11:25:18;5.43;;;4.90;;
17310;SDS011;8773;43.300;0.394;2023-12-07T11:27:47;6.40;;;5.17;;
17310;SDS011;8773;43.300;0.394;2023-12-07T11:30:14;5.63;;;5.23;;
17310;SDS011;8773;43.300;0.394;2023-12-07T11:32:43;6.57;;;5.60;;
17310;SDS011;8773;43.300;0.394;2023-12-07T11:35:13;6.50;;;6.00;;
17310;SDS011;8773;43.300;0.394;2023-12-07T11:40:34;6.47;;;5.57;;
17310;SDS011;8773;43.300;0.394;2023-12-07T11:43:02;8.13;;;6.33;;
17310;SDS011;8773;43.300;0.394;2023-12-07T11:45:36;8.37;;;6.37;;
17310;SDS011;8773;43.300;0.394;2023-12-07T11:48:10;7.10;;;6.07;;
17310;SDS011;8773;43.300;0.394;2023-12-07T11:50:54;7.67;;;7.07;;
17310;SDS011;8773;43.300;0.394;2023-12-07T11:53:23;9.13;;;8.33;;
17310;SDS011;8773;43.300;0.394;2023-12-07T11:55:54;15.83;;;14.43;;
17310;SDS011;8773;43.300;0.394;2023-12-07T11:58:21;8.00;;;7.27;;
17310;SDS011;8773;43.300;0.394;2023-12-07T12:00:50;7.80;;;7.10;;
17310;SDS011;8773;43.300;0.394;2023-12-07T12:03:19;8.87;;;8.07;;
17310;SDS011;8773;43.300;0.394;2023-12-07T12:05:46;13.87;;;12.47;;
17310;SDS011;8773;43.300;0.394;2023-12-07T12:08:15;8.53;;;7.73;;
17310;SDS011;8773;43.300;0.394;2023-12-07T12:10:42;8.87;;;8.03;;
17310;SDS011;8773;43.300;0.394;2023-12-07T12:13:12;7.83;;;7.03;;
17310;SDS011;8773;43.300;0.394;2023-12-07T12:15:39;8.03;;;7.33;;
17310;SDS011;8773;43.300;0.394;2023-12-07T12:18:07;9.40;;;8.03;;
17310;SDS011;8773;43.300;0.394;2023-12-07T12:20:35;9.27;;;8.40;;
17310;SDS011;8773;43.300;0.394;2023-12-07T12:23:03;10.23;;;8.83;;
17310;SDS011;8773;43.300;0.394;2023-12-07T12:25:30;8.47;;;7.67;;
17310;SDS011;8773;43.300;0.394;2023-12-07T12:27:59;8.70;;;7.80;;
17310;SDS011;8773;43.300;0.394;2023-12-07T12:30:32;7.60;;;6.90;;
17310;SDS011;8773;43.300;0.394;2023-12-07T12:33:00;8.23;;;7.43;;
17310;SDS011;8773;43.300;0.394;2023-12-07T12:35:27;10.60;;;9.60;;
17310;SDS011;8773;43.300;0.394;2023-12-07T12:37:55;8.33;;;7.53;;
17310;SDS011;8773;43.300;0.394;2023-12-07T12:40:23;8.47;;;7.57;;
17310;SDS011;8773;43.300;0.394;2023-12-07T12:42:53;9.23;;;8.30;;
17310;SDS011;8773;43.300;0.394;2023-12-07T12:45:23;8.50;;;7.77;;
17310;SDS011;8773;43.300;0.394;2023-12-07T12:47:52;8.70;;;8.00;;
17310;SDS011;8773;43.300;0.394;2023-12-07T12:50:32;10.67;;;8.57;;
17310;SDS011;8773;43.300;0.394;2023-12-07T12:53:02;9.50;;;8.60;;
17310;SDS011;8773;43.300;0.394;2023-12-07T12:55:30;9.53;;;8.63;;
17310;SDS011;8773;43.300;0.394;2023-12-07T12:57:58;9.40;;;8.50;;
17310;SDS011;8773;43.300;0.394;2023-12-07T13:00:25;8.40;;;7.73;;
17310;SDS011;8773;43.300;0.394;2023-12-07T13:02:54;8.70;;;7.90;;
17310;SDS011;8773;43.300;0.394;2023-12-07T13:05:22;9.00;;;8.10;;
17310;SDS011;8773;43.300;0.394;2023-12-07T13:07:49;10.13;;;9.13;;
17310;SDS011;8773;43.300;0.394;2023-12-07T13:10:34;9.03;;;8.17;;
17310;SDS011;8773;43.300;0.394;2023-12-07T13:13:01;10.27;;;8.90;;
17310;SDS011;8773;43.300;0.394;2023-12-07T13:15:28;6.97;;;6.37;;
17310;SDS011;8773;43.300;0.394;2023-12-07T13:17:57;7.93;;;7.23;;
17310;SDS011;8773;43.300;0.394;2023-12-07T13:20:24;7.37;;;6.77;;
17310;SDS011;8773;43.300;0.394;2023-12-07T13:22:52;6.60;;;6.00;;
17310;SDS011;8773;43.300;0.394;2023-12-07T13:25:19;6.50;;;6.00;;
17310;SDS011;8773;43.300;0.394;2023-12-07T13:27:46;5.87;;;5.47;;
17310;SDS011;8773;43.300;0.394;2023-12-07T13:30:14;6.17;;;5.67;;
17310;SDS011;8773;43.300;0.394;2023-12-07T13:32:41;6.30;;;5.80;;
17310;SDS011;8773;43.300;0.394;2023-12-07T13:35:10;6.37;;;5.67;;
17310;SDS011;8773;43.300;0.394;2023-12-07T13:37:38;6.00;;;5.50;;
17310;SDS011;8773;43.300;0.394;2023-12-07T13:40:06;6.37;;;5.80;;
17310;SDS011;8773;43.300;0.394;2023-12-07T13:42:34;7.10;;;6.40;;
17310;SDS011;8773;43.300;0.394;2023-12-07T13:45:02;10.13;;;9.23;;
17310;SDS011;8773;43.300;0.394;2023-12-07T13:47:29;6.97;;;6.27;;
17310;SDS011;8773;43.300;0.394;2023-12-07T13:49:57;6.07;;;5.47;;
17310;SDS011;8773;43.300;0.394;2023-12-07T13:52:27;6.03;;;5.43;;
17310;SDS011;8773;43.300;0.394;2023-12-07T13:54:54;16.00;;;14.50;;
17310;SDS011;8773;43.300;0.394;2023-12-07T13:57:22;9.87;;;9.07;;
17310;SDS011;8773;43.300;0.394;2023-12-07T13:59:50;10.30;;;9.40;;
17310;SDS011;8773;43.300;0.394;2023-12-07T14:02:18;6.47;;;6.07;;
17310;SDS011;8773;43.300;0.394;2023-12-07T14:04:46;5.53;;;5.10;;
17310;SDS011;8773;43.300;0.394;2023-12-07T14:07:14;6.00;;;5.23;;
17310;SDS011;8773;43.300;0.394;2023-12-07T14:09:44;7.80;;;6.90;;
17310;SDS011;8773;43.300;0.394;2023-12-07T14:12:24;10.10;;;9.30;;
17310;SDS011;8773;43.300;0.394;2023-12-07T14:14:51;5.43;;;4.97;;
17310;SDS011;8773;43.300;0.394;2023-12-07T14:17:19;7.37;;;6.80;;
17310;SDS011;8773;43.300;0.394;2023-12-07T14:19:46;6.10;;;5.50;;
17310;SDS011;8773;43.300;0.394;2023-12-07T14:22:14;5.80;;;5.37;;
17310;SDS011;8773;43.300;0.394;2023-12-07T14:24:41;6.47;;;5.90;;
17310;SDS011;8773;43.300;0.394;2023-12-07T14:27:10;6.10;;;5.47;;
17310;SDS011;8773;43.300;0.394;2023-12-07T14:29:37;6.03;;;5.60;;
17310;SDS011;8773;43.300;0.394;2023-12-07T14:32:05;5.47;;;4.97;;
17310;SDS011;8773;43.300;0.394;2023-12-07T14:34:32;5.50;;;5.10;;
17310;SDS011;8773;43.300;0.394;2023-12-07T14:37:02;6.53;;;5.90;;
17310;SDS011;8773;43.300;0.394;2023-12-07T14:39:30;6.70;;;5.90;;
17310;SDS011;8773;43.300;0.394;2023-12-07T14:41:57;6.50;;;5.90;;
17310;SDS011;8773;43.300;0.394;2023-12-07T14:44:26;7.00;;;6.40;;
17310;SDS011;8773;43.300;0.394;2023-12-07T14:46:56;7.47;;;6.30;;
17310;SDS011;8773;43.300;0.394;2023-12-07T14:49:24;7.47;;;6.67;;
17310;SDS011;8773;43.300;0.394;2023-12-07T14:51:53;7.77;;;6.90;;
17310;SDS011;8773;43.300;0.394;2023-12-07T14:54:21;8.40;;;6.73;;
17310;SDS011;8773;43.300;0.394;2023-12-07T14:56:55;7.80;;;7.03;;
17310;SDS011;8773;43.300;0.394;2023-12-07T14:59:23;8.10;;;7.17;;
17310;SDS011;8773;43.300;0.394;2023-12-07T15:01:51;10.23;;;6.87;;
17310;SDS011;8773;43.300;0.394;2023-12-07T15:04:19;11.37;;;9.67;;
17310;SDS011;8773;43.300;0.394;2023-12-07T15:06:59;10.07;;;7.60;;
17310;SDS011;8773;43.300;0.394;2023-12-07T15:09:27;11.23;;;9.93;;
17310;SDS011;8773;43.300;0.394;2023-12-07T15:11:55;11.70;;;10.00;;